Kezdőlap
METAR-TAF:

METAR-TAF

Repülőterek :

Quentin Aanenson Field

Luverne, Minnesota, Amerikai Egyesült Államok

földrajzi szélesség: 43-37-16N, földrajzi hosszúság: 096-12-58W, magasság: 436 m

Jelenlegi meteorológiai megfigyelések

A jelentés 23 órával és 23 perccel ezelõtt készült, 15:35 UTC
Nyugat-délnyugati szél 5 kt
Hőmérséklet 26°C
Páratartalom 70%
Légköri nyomás 1015 hPa
Látótávolság: 16.1 km
Derült ég

METAR: KLYV 271535Z AUTO 24005KT 10SM CLR 26/20 A2997 RMK AO2

Idő: 09:58 (14:58 UTC)


TAF: hiányzik

Meteorológiai megfigyelések és előrejelzések több, mint 4000 repülőtéren (METAR és TAF jelentéseket).

A térképen piros és sárga pontok jelzik az elérhető meteorológiai állomásokat.

Mozgassa az egeret a pont fölött, hogy megjelenjen az állomás neve.

Azután kattintson az időjárási megfigyelések és előrejelzések megtekintéséhez.

A térkép megváltoztatása: kattintson a fekete keresztel jelölt zöld gombra ráközelítéshez, a vonallal jelölt zöld gombra távolításhoz, vagy a zöld nyilakra a szomszédos térképek eléréséhez.


METAR-TAF: